Time;durP1;ratioP1;P1;durP2;ratioP2;P2;SDS_P1;SDS_P2;PMS_P1;PMS_P2;Temp;Humidity;BMP_temperature;BMP_pressure;BME280_temperature;BME280_humidity;BME280_pressure;Samples;Min_cycle;Max_cycle;Signal;HPM_P1;HPM_P2
2021/05/31 00:02:16;;;;;;;0.35;0.35;;;23.40;39.30;;;;;;5088104;28;20485;-58
2021/05/31 00:04:44;;;;;;;1.08;0.45;;;23.40;39.40;;;;;;5087812;28;20481;-59
2021/05/31 00:07:14;;;;;;;0.22;0.22;;;23.40;39.40;;;;;;5086868;28;20052;-60
2021/05/31 00:09:42;;;;;;;0.50;0.50;;;23.40;39.40;;;;;;5088243;28;20044;-61
2021/05/31 00:12:12;;;;;;;0.85;0.30;;;23.30;39.40;;;;;;5087822;28;20105;-58
2021/05/31 00:14:41;;;;;;;0.60;0.60;;;23.30;39.40;;;;;;5088399;28;20060;-58
2021/05/31 00:17:09;;;;;;;0.50;0.50;;;23.30;39.40;;;;;;5087775;28;20521;-59
2021/05/31 00:19:36;;;;;;;0.93;0.60;;;23.30;39.40;;;;;;5087806;28;20139;-59
2021/05/31 00:22:03;;;;;;;0.47;0.47;;;23.30;39.50;;;;;;5087351;28;20511;-59
2021/05/31 00:24:31;;;;;;;0.77;0.50;;;23.40;39.50;;;;;;5087668;28;20058;-59
2021/05/31 00:26:59;;;;;;;0.40;0.40;;;23.40;39.50;;;;;;5087415;28;20040;-59
2021/05/31 00:29:26;;;;;;;0.50;0.50;;;23.40;39.50;;;;;;5086552;28;20132;-59
2021/05/31 00:31:55;;;;;;;0.22;0.22;;;23.40;39.50;;;;;;5087471;28;20041;-59
2021/05/31 00:34:23;;;;;;;0.50;0.50;;;23.40;39.40;;;;;;5087575;28;20149;-59
2021/05/31 00:36:50;;;;;;;1.05;0.60;;;23.40;39.40;;;;;;5086908;28;20135;-59
2021/05/31 00:39:20;;;;;;;0.40;0.40;;;23.40;39.30;;;;;;5087736;28;20063;-59
2021/05/31 00:41:49;;;;;;;1.55;0.45;;;23.40;39.40;;;;;;5087194;28;20309;-59
2021/05/31 00:44:18;;;;;;;0.40;0.40;;;23.40;39.50;;;;;;5086828;28;20048;-59
2021/05/31 00:46:46;;;;;;;0.50;0.50;;;23.40;39.50;;;;;;5086703;28;20440;-60
2021/05/31 00:49:23;;;;;;;0.50;0.40;;;23.30;39.50;;;;;;5087673;28;20056;-59
2021/05/31 00:51:51;;;;;;;0.85;0.50;;;23.30;39.60;;;;;;5087096;28;20087;-58
2021/05/31 00:54:20;;;;;;;0.60;0.60;;;23.30;39.60;;;;;;5087452;28;20074;-59
2021/05/31 00:56:48;;;;;;;0.50;0.45;;;23.30;40.10;;;;;;5087520;28;20119;-59
2021/05/31 00:59:15;;;;;;;0.52;0.52;;;23.30;39.60;;;;;;5087089;28;20577;-59
2021/05/31 01:01:42;;;;;;;0.40;0.40;;;23.20;39.60;;;;;;5086790;28;20079;-59
2021/05/31 01:04:09;;;;;;;0.60;0.60;;;23.30;39.70;;;;;;5086817;28;20074;-59
2021/05/31 01:06:41;;;;;;;0.70;0.70;;;23.20;39.60;;;;;;5086128;28;20248;-59
2021/05/31 01:09:14;;;;;;;0.50;0.50;;;23.20;39.60;;;;;;5086937;28;20048;-59
2021/05/31 01:12:06;;;;;;;0.50;0.50;;;23.20;39.60;;;;;;5085973;28;20324;-59
2021/05/31 01:14:42;;;;;;;0.55;0.47;;;23.30;39.70;;;;;;5086909;28;20048;-59
2021/05/31 01:17:18;;;;;;;0.32;0.32;;;23.30;39.70;;;;;;5086594;28;20460;-59
2021/05/31 01:20:04;;;;;;;0.40;0.40;;;23.30;39.70;;;;;;5087436;28;20085;-59
2021/05/31 01:22:35;;;;;;;0.57;0.57;;;23.30;39.60;;;;;;5086423;28;20455;-62
2021/05/31 01:25:27;;;;;;;0.43;0.43;;;23.30;39.60;;;;;;5087510;28;20484;-59
2021/05/31 01:28:25;;;;;;;0.40;0.40;;;23.30;39.50;;;;;;5086555;28;20482;-61
2021/05/31 01:30:54;;;;;;;0.57;0.57;;;23.40;39.60;;;;;;5086642;28;20044;-59
2021/05/31 01:33:27;;;;;;;0.50;0.50;;;23.30;39.50;;;;;;5086465;28;20036;-59
2021/05/31 01:35:56;;;;;;;0.50;0.47;;;23.30;39.60;;;;;;5086205;28;20090;-59
2021/05/31 01:38:25;;;;;;;0.45;0.45;;;23.30;39.60;;;;;;5085135;28;20146;-59
2021/05/31 01:40:53;;;;;;;0.60;0.60;;;23.30;39.70;;;;;;5086202;28;20396;-59
2021/05/31 01:43:21;;;;;;;0.52;0.52;;;23.20;39.70;;;;;;5086450;28;20355;-59
2021/05/31 01:45:49;;;;;;;0.50;0.50;;;23.20;39.70;;;;;;5086214;28;20131;-59
2021/05/31 01:48:16;;;;;;;0.63;0.63;;;23.20;39.70;;;;;;5085187;28;20044;-59
2021/05/31 01:50:44;;;;;;;0.40;0.40;;;23.20;39.70;;;;;;5085873;28;20382;-59
2021/05/31 01:53:13;;;;;;;0.70;0.70;;;23.20;39.80;;;;;;5085791;28;20040;-59
2021/05/31 01:55:40;;;;;;;0.60;0.60;;;23.20;39.80;;;;;;5086106;28;20152;-59
2021/05/31 01:58:09;;;;;;;0.43;0.43;;;23.20;39.80;;;;;;5085671;28;20463;-59
2021/05/31 02:00:36;;;;;;;0.68;0.68;;;23.20;39.80;;;;;;5085934;28;20095;-59
2021/05/31 02:03:04;;;;;;;0.60;0.60;;;23.20;39.80;;;;;;5085777;28;20052;-59
2021/05/31 02:05:35;;;;;;;0.65;0.65;;;23.20;39.80;;;;;;5085980;28;20578;-59
2021/05/31 02:08:03;;;;;;;0.43;0.43;;;23.20;39.80;;;;;;5085311;28;20098;-59
2021/05/31 02:10:30;;;;;;;1.10;0.60;;;23.20;39.80;;;;;;5085678;28;20131;-59
2021/05/31 02:13:03;;;;;;;0.50;0.50;;;23.20;39.80;;;;;;5085832;28;20040;-59
2021/05/31 02:15:55;;;;;;;0.35;0.35;;;23.30;39.80;;;;;;5085776;28;20139;-59
2021/05/31 02:18:33;;;;;;;0.40;0.40;;;23.30;39.70;;;;;;5085727;28;20276;-58
2021/05/31 02:21:08;;;;;;;0.50;0.50;;;23.30;39.70;;;;;;5085756;28;20036;-59
2021/05/31 02:23:39;;;;;;;0.65;0.65;;;23.30;39.70;;;;;;5084911;28;20105;-59
2021/05/31 02:26:08;;;;;;;0.50;0.50;;;23.20;39.70;;;;;;5085489;28;20123;-61
2021/05/31 02:28:36;;;;;;;0.40;0.40;;;23.20;39.70;;;;;;5085272;28;20225;-59
2021/05/31 02:31:03;;;;;;;0.65;0.65;;;23.20;39.80;;;;;;5085101;28;20131;-59
2021/05/31 02:33:30;;;;;;;0.75;0.63;;;23.20;39.80;;;;;;5085292;28;20207;-59
2021/05/31 02:35:57;;;;;;;0.85;0.80;;;23.20;39.80;;;;;;5085391;28;20047;-59
2021/05/31 02:38:24;;;;;;;0.80;0.80;;;23.20;39.90;;;;;;5085195;28;20134;-59
2021/05/31 02:40:51;;;;;;;0.52;0.52;;;23.20;39.90;;;;;;5085784;28;20131;-59
2021/05/31 02:43:18;;;;;;;0.52;0.50;;;23.20;39.90;;;;;;5084843;28;20320;-59
2021/05/31 02:45:45;;;;;;;0.57;0.57;;;23.20;39.90;;;;;;5085376;28;20348;-59
2021/05/31 02:48:13;;;;;;;1.25;0.60;;;23.20;40.00;;;;;;5084114;28;20131;-59
2021/05/31 02:50:40;;;;;;;0.63;0.63;;;23.20;39.90;;;;;;5085171;28;20424;-59
2021/05/31 02:53:07;;;;;;;0.55;0.55;;;23.20;40.00;;;;;;5083549;28;20044;-59
2021/05/31 02:55:36;;;;;;;0.60;0.60;;;23.10;39.90;;;;;;5085083;28;20044;-59
2021/05/31 02:58:04;;;;;;;0.47;0.47;;;23.20;39.90;;;;;;5085098;28;20119;-59
2021/05/31 03:00:32;;;;;;;0.63;0.63;;;23.20;39.90;;;;;;5089929;28;20127;-59
2021/05/31 03:02:59;;;;;;;0.25;0.25;;;23.20;39.90;;;;;;5091661;28;20087;-59
2021/05/31 03:05:29;;;;;;;0.55;0.55;;;23.20;39.90;;;;;;5092008;28;20048;-59
2021/05/31 03:07:58;;;;;;;0.35;0.35;;;23.20;39.80;;;;;;5091907;28;20135;-59
2021/05/31 03:10:26;;;;;;;0.45;0.45;;;23.20;39.80;;;;;;5090059;28;20144;-59
2021/05/31 03:12:54;;;;;;;0.47;0.47;;;23.20;39.80;;;;;;5091605;28;20128;-59
2021/05/31 03:15:22;;;;;;;0.65;0.65;;;23.30;39.80;;;;;;5092170;28;20048;-59
2021/05/31 03:17:51;;;;;;;0.50;0.50;;;23.30;39.80;;;;;;5091533;28;20044;-62
2021/05/31 03:20:21;;;;;;;0.32;0.32;;;23.20;39.80;;;;;;5091439;28;20248;-59
2021/05/31 03:22:48;;;;;;;0.40;0.40;;;23.20;39.80;;;;;;5091945;28;20143;-59
2021/05/31 03:25:16;;;;;;;0.40;0.40;;;23.20;39.90;;;;;;5091810;28;20719;-59
2021/05/31 03:27:43;;;;;;;0.50;0.50;;;23.20;39.90;;;;;;5091450;28;20162;-59
2021/05/31 03:30:13;;;;;;;0.70;0.68;;;23.20;39.90;;;;;;5091377;28;20154;-59
2021/05/31 03:32:41;;;;;;;0.63;0.63;;;23.20;40.00;;;;;;5091544;28;20556;-58
2021/05/31 03:35:10;;;;;;;0.65;0.65;;;23.20;39.90;;;;;;5091201;28;20372;-59
2021/05/31 03:37:38;;;;;;;0.52;0.52;;;23.20;39.90;;;;;;5091360;28;20435;-59
2021/05/31 03:40:06;;;;;;;0.50;0.50;;;23.20;39.90;;;;;;5085358;28;20041;-59
2021/05/31 03:42:34;;;;;;;0.40;0.40;;;23.20;39.90;;;;;;5079074;28;20069;-59
2021/05/31 03:45:01;;;;;;;0.50;0.50;;;23.20;39.90;;;;;;5085948;28;20131;-59
2021/05/31 03:47:28;;;;;;;0.50;0.50;;;23.20;40.40;;;;;;5091430;28;20080;-59
2021/05/31 03:49:56;;;;;;;0.50;0.50;;;23.30;39.80;;;;;;5085149;28;20076;-60
2021/05/31 03:52:23;;;;;;;0.40;0.40;;;23.40;39.80;;;;;;5086742;28;20121;-59
2021/05/31 03:54:50;;;;;;;0.70;0.50;;;23.40;39.70;;;;;;5087815;28;20545;-59
2021/05/31 03:57:17;;;;;;;0.30;0.30;;;23.40;39.80;;;;;;5089924;28;20131;-59
2021/05/31 03:59:47;;;;;;;0.52;0.52;;;23.40;39.50;;;;;;5090062;28;20087;-59
2021/05/31 04:02:14;;;;;;;0.50;0.50;;;23.50;39.50;;;;;;5091885;28;20047;-59
2021/05/31 04:04:43;;;;;;;0.50;0.50;;;23.50;39.40;;;;;;5090335;28;20251;-59
2021/05/31 04:12:47;;;;;;;0.38;0.38;;;23.60;39.80;;;;;;5086699;28;20090;-59
2021/05/31 04:15:14;;;;;;;0.43;0.43;;;23.60;39.20;;;;;;5088161;28;20344;-59
2021/05/31 04:17:41;;;;;;;0.50;0.50;;;23.60;39.20;;;;;;5088229;28;20131;-59
2021/05/31 04:20:10;;;;;;;0.47;0.47;;;23.60;39.10;;;;;;5088141;28;20121;-59
2021/05/31 04:22:37;;;;;;;0.80;0.80;;;23.70;39.10;;;;;;5087856;28;20087;-59
2021/05/31 04:25:05;;;;;;;0.60;0.60;;;23.70;39.10;;;;;;5087660;28;20109;-59
2021/05/31 04:27:32;;;;;;;0.65;0.50;;;23.70;39.10;;;;;;5080830;28;21262;-59
2021/05/31 04:29:59;;;;;;;0.85;0.50;;;23.70;39.10;;;;;;5081635;28;20036;-59
2021/05/31 04:32:27;;;;;;;0.52;0.52;;;23.70;39.00;;;;;;5086936;28;20160;-59
2021/05/31 04:34:54;;;;;;;0.55;0.55;;;23.80;39.00;;;;;;5087029;28;20044;-59
2021/05/31 04:37:21;;;;;;;0.52;0.52;;;23.70;39.00;;;;;;5087575;28;20353;-59
2021/05/31 04:39:48;;;;;;;0.70;0.70;;;23.80;39.00;;;;;;5087126;28;20079;-59
2021/05/31 04:42:15;;;;;;;0.68;0.68;;;23.80;38.90;;;;;;5081226;28;20199;-59
2021/05/31 04:44:42;;;;;;;1.08;0.65;;;23.90;38.90;;;;;;5076281;28;20076;-59
2021/05/31 04:47:10;;;;;;;0.63;0.63;;;23.90;38.80;;;;;;5076028;28;20147;-59
2021/05/31 04:49:37;;;;;;;0.70;0.60;;;23.90;38.70;;;;;;5077284;28;20079;-59
2021/05/31 04:52:04;;;;;;;0.50;0.50;;;23.90;38.70;;;;;;5076403;28;20040;-59
2021/05/31 04:54:31;;;;;;;0.50;0.50;;;23.90;38.70;;;;;;5083956;28;20345;-59
2021/05/31 04:56:58;;;;;;;0.50;0.50;;;23.90;38.60;;;;;;5085077;28;20040;-59
2021/05/31 04:59:26;;;;;;;0.60;0.60;;;24.00;38.70;;;;;;5086597;28;20040;-59
2021/05/31 05:01:53;;;;;;;0.80;0.80;;;24.00;38.60;;;;;;5081930;28;20036;-59
2021/05/31 05:04:20;;;;;;;1.13;0.60;;;24.00;38.60;;;;;;5083027;28;20106;-59
2021/05/31 05:06:47;;;;;;;0.55;0.55;;;24.00;38.60;;;;;;5084837;28;20048;-59
2021/05/31 05:09:14;;;;;;;0.98;0.98;;;24.00;38.40;;;;;;5084389;28;20044;-59
2021/05/31 05:11:41;;;;;;;0.70;0.70;;;24.10;38.40;;;;;;5083764;28;20575;-60
2021/05/31 05:14:08;;;;;;;0.80;0.80;;;24.10;38.40;;;;;;5084065;28;20552;-61
2021/05/31 05:16:35;;;;;;;0.88;0.88;;;24.10;38.30;;;;;;5083658;28;20492;-59
2021/05/31 05:19:03;;;;;;;1.08;0.73;;;24.20;38.30;;;;;;5076634;28;20040;-60
2021/05/31 05:21:30;;;;;;;0.80;0.80;;;24.20;38.30;;;;;;5085655;28;20044;-60
2021/05/31 05:23:57;;;;;;;1.00;1.00;;;24.10;38.40;;;;;;5085429;28;20082;-60
2021/05/31 05:26:24;;;;;;;0.95;0.82;;;24.20;38.40;;;;;;5085733;28;20079;-61
2021/05/31 05:28:51;;;;;;;1.23;0.93;;;24.20;38.40;;;;;;5080598;28;20044;-60
2021/05/31 05:31:19;;;;;;;1.48;1.38;;;24.30;38.60;;;;;;5084492;28;20772;-60
2021/05/31 05:33:46;;;;;;;1.40;0.90;;;24.30;38.60;;;;;;5080126;28;20481;-61
2021/05/31 05:36:23;;;;;;;1.00;1.00;;;24.30;38.50;;;;;;5083419;28;20131;-59
2021/05/31 05:42:12;;;;;;;1.75;1.65;;;24.40;38.40;;;;;;5075340;28;20040;-59
2021/05/31 05:45:04;;;;;;;1.48;1.10;;;24.40;38.30;;;;;;5077138;28;20044;-59
2021/05/31 05:49:59;;;;;;;1.23;1.13;;;24.40;38.10;;;;;;5080442;28;20051;-59
2021/05/31 05:52:27;;;;;;;2.70;1.65;;;24.50;38.10;;;;;;5079628;28;20062;-61
2021/05/31 05:54:54;;;;;;;1.55;1.45;;;24.50;38.20;;;;;;5078876;28;20044;-60
2021/05/31 05:57:21;;;;;;;3.95;1.63;;;24.50;38.20;;;;;;5073332;28;20076;-61
2021/05/31 05:59:48;;;;;;;1.80;1.70;;;24.50;38.10;;;;;;5076781;28;20139;-60
2021/05/31 06:02:15;;;;;;;1.35;1.35;;;24.60;38.00;;;;;;5077395;28;20048;-60
2021/05/31 06:04:44;;;;;;;1.70;1.60;;;24.60;37.80;;;;;;5075985;28;20138;-59
2021/05/31 06:07:11;;;;;;;3.08;1.60;;;24.60;37.70;;;;;;5075894;28;20044;-60
2021/05/31 06:09:38;;;;;;;1.52;1.42;;;24.60;37.60;;;;;;5080557;28;20051;-60
2021/05/31 06:12:06;;;;;;;1.77;1.67;;;24.60;37.40;;;;;;5072118;28;20151;-60
2021/05/31 06:14:33;;;;;;;2.10;1.83;;;24.70;37.40;;;;;;5081478;28;20133;-61
2021/05/31 06:17:01;;;;;;;1.85;1.58;;;24.70;37.30;;;;;;5078801;28;20179;-61
2021/05/31 06:19:30;;;;;;;1.48;1.33;;;24.70;37.40;;;;;;5080546;28;20135;-61
2021/05/31 06:21:57;;;;;;;2.95;1.75;;;24.70;37.30;;;;;;5078358;28;20066;-63
2021/05/31 06:24:24;;;;;;;5.63;1.50;;;24.70;37.30;;;;;;5077583;28;20135;-63
2021/05/31 06:26:51;;;;;;;2.17;1.70;;;24.70;37.40;;;;;;5077243;28;20072;-59
2021/05/31 06:29:19;;;;;;;1.77;1.50;;;24.80;37.30;;;;;;5078449;28;20052;-58
2021/05/31 06:31:46;;;;;;;2.45;1.75;;;24.80;37.40;;;;;;5078397;28;20067;-62
2021/05/31 06:34:13;;;;;;;3.90;2.10;;;24.90;37.40;;;;;;5080842;28;20055;-60
2021/05/31 06:36:41;;;;;;;1.80;1.65;;;24.90;37.30;;;;;;5080448;28;20044;-61
2021/05/31 06:39:10;;;;;;;1.70;1.60;;;24.90;37.40;;;;;;5081264;28;20048;-60
2021/05/31 06:41:38;;;;;;;1.70;1.60;;;24.90;37.20;;;;;;5078123;28;20072;-63
2021/05/31 06:44:06;;;;;;;2.35;1.77;;;24.90;37.20;;;;;;5082664;28;20131;-65
2021/05/31 06:46:33;;;;;;;3.50;2.00;;;25.00;37.10;;;;;;5080836;28;20062;-63
2021/05/31 06:49:01;;;;;;;2.33;1.70;;;25.00;37.10;;;;;;5078775;28;20053;-60
2021/05/31 06:51:28;;;;;;;1.75;1.65;;;25.00;36.90;;;;;;5074401;28;20071;-61
2021/05/31 06:53:56;;;;;;;3.97;2.13;;;25.00;36.70;;;;;;5074524;28;20071;-62
2021/05/31 06:56:23;;;;;;;2.05;1.45;;;25.10;36.70;;;;;;5074938;28;20143;-59
2021/05/31 06:58:51;;;;;;;2.40;1.45;;;25.10;36.80;;;;;;5073979;28;20083;-59
2021/05/31 07:01:18;;;;;;;1.65;1.55;;;25.10;36.90;;;;;;5072493;28;20075;-60
2021/05/31 07:03:45;;;;;;;3.45;1.35;;;25.10;37.10;;;;;;5076302;28;20396;-60
2021/05/31 07:06:13;;;;;;;5.85;1.52;;;25.10;37.10;;;;;;5072943;28;20052;-62
2021/05/31 07:08:40;;;;;;;1.52;1.45;;;25.10;37.10;;;;;;5076992;28;20056;-62
2021/05/31 07:11:14;;;;;;;2.03;1.60;;;25.20;37.10;;;;;;5074431;28;20044;-60
2021/05/31 07:13:41;;;;;;;1.95;1.52;;;25.20;37.00;;;;;;5075722;28;20090;-60
2021/05/31 07:16:12;;;;;;;4.65;1.50;;;25.20;36.90;;;;;;5074961;28;20130;-63
2021/05/31 07:18:39;;;;;;;1.50;1.40;;;25.20;36.80;;;;;;5076281;28;20044;-63
2021/05/31 07:21:07;;;;;;;1.52;1.42;;;25.30;37.00;;;;;;5075388;28;20138;-65
2021/05/31 07:23:38;;;;;;;1.77;1.63;;;25.30;37.00;;;;;;5073027;28;20109;-65
2021/05/31 07:26:06;;;;;;;2.80;1.60;;;25.30;36.80;;;;;;5077014;28;20097;-64
2021/05/31 07:28:34;;;;;;;2.95;2.00;;;25.30;36.80;;;;;;5074703;28;20072;-62
2021/05/31 07:31:01;;;;;;;1.50;1.30;;;25.30;36.70;;;;;;5071942;28;20395;-63
2021/05/31 07:33:28;;;;;;;5.68;2.42;;;25.30;36.60;;;;;;5074995;28;20131;-62
2021/05/31 07:35:57;;;;;;;3.97;2.20;;;25.40;36.10;;;;;;5077015;28;20076;-64
2021/05/31 07:38:25;;;;;;;2.40;2.20;;;25.20;35.70;;;;;;5074840;28;20052;-63
2021/05/31 07:40:52;;;;;;;4.00;2.40;;;25.10;35.70;;;;;;5074703;28;20048;-63
2021/05/31 07:43:19;;;;;;;3.75;2.45;;;24.90;35.80;;;;;;5077840;28;20080;-63
2021/05/31 07:45:47;;;;;;;3.05;1.90;;;24.70;36.20;;;;;;5075729;28;20048;-64
2021/05/31 07:48:14;;;;;;;4.43;1.88;;;24.60;36.80;;;;;;5076071;28;20051;-63
2021/05/31 07:50:42;;;;;;;1.90;1.80;;;24.50;36.80;;;;;;5075659;28;20094;-62
2021/05/31 07:53:09;;;;;;;2.78;1.60;;;24.50;37.10;;;;;;5073820;28;20064;-62
2021/05/31 07:55:36;;;;;;;2.30;1.83;;;24.50;37.30;;;;;;5081042;28;20442;-63
2021/05/31 07:58:05;;;;;;;1.77;1.60;;;24.50;37.50;;;;;;5082471;28;20066;-63
2021/05/31 08:00:33;;;;;;;1.73;1.45;;;24.60;37.60;;;;;;5079893;28;21589;-63
2021/05/31 08:03:01;;;;;;;1.63;1.50;;;24.70;37.70;;;;;;5078385;28;20044;-63
2021/05/31 08:05:28;;;;;;;1.33;1.25;;;24.70;37.60;;;;;;5080867;28;20075;-63
2021/05/31 08:07:55;;;;;;;3.03;1.60;;;24.80;37.60;;;;;;5080208;28;20083;-62
2021/05/31 08:10:23;;;;;;;3.63;1.30;;;24.80;37.50;;;;;;5081388;28;20048;-63
2021/05/31 08:12:51;;;;;;;1.35;1.25;;;24.90;37.40;;;;;;5082507;28;20553;-63
2021/05/31 08:15:18;;;;;;;5.72;1.50;;;24.90;37.40;;;;;;5080980;28;20058;-63
2021/05/31 08:17:45;;;;;;;1.98;1.25;;;24.90;37.30;;;;;;5082995;28;20052;-63
2021/05/31 08:20:14;;;;;;;1.50;1.40;;;25.00;37.40;;;;;;5081815;28;20234;-63
2021/05/31 08:22:45;;;;;;;2.75;1.75;;;25.10;37.40;;;;;;5082054;28;20520;-64
2021/05/31 08:25:14;;;;;;;1.17;1.08;;;25.10;37.40;;;;;;5081721;28;20519;-62
2021/05/31 08:27:42;;;;;;;2.80;1.55;;;25.10;37.40;;;;;;5078071;28;20127;-62
2021/05/31 08:30:11;;;;;;;1.67;1.42;;;25.20;37.40;;;;;;5081084;28;20135;-64
2021/05/31 08:32:38;;;;;;;2.70;1.33;;;25.30;37.30;;;;;;5078845;28;20127;-61
2021/05/31 08:35:05;;;;;;;1.40;1.30;;;25.40;37.20;;;;;;5077546;28;20043;-62
2021/05/31 08:37:33;;;;;;;3.03;1.10;;;25.40;36.90;;;;;;5080893;28;20708;-63
2021/05/31 08:40:00;;;;;;;1.58;1.35;;;25.50;36.90;;;;;;5078073;28;20101;-65
2021/05/31 08:42:27;;;;;;;7.65;2.40;;;25.60;36.90;;;;;;5077509;28;20067;-61
2021/05/31 08:44:54;;;;;;;1.70;1.60;;;25.70;36.80;;;;;;5085217;28;20048;-62
2021/05/31 08:47:24;;;;;;;1.65;1.40;;;25.70;36.50;;;;;;5079260;28;20048;-62
2021/05/31 08:49:51;;;;;;;1.45;1.33;;;25.80;36.30;;;;;;5085329;28;20040;-64
2021/05/31 08:52:18;;;;;;;3.92;1.77;;;25.90;36.30;;;;;;5081557;28;20147;-63
2021/05/31 08:54:45;;;;;;;3.28;1.67;;;25.90;36.20;;;;;;5081267;28;20044;-63
2021/05/31 08:57:13;;;;;;;1.60;1.50;;;26.00;36.20;;;;;;5079649;28;20119;-62
2021/05/31 08:59:40;;;;;;;2.83;1.48;;;26.00;35.90;;;;;;5080076;28;20197;-61
2021/05/31 09:02:09;;;;;;;2.33;1.27;;;26.10;35.80;;;;;;5082250;28;20058;-62
2021/05/31 09:04:47;;;;;;;1.75;1.20;;;26.10;35.70;;;;;;5075968;28;20076;-59
2021/05/31 09:07:15;;;;;;;1.70;1.20;;;26.20;36.00;;;;;;5068241;28;20523;-62
2021/05/31 09:09:47;;;;;;;4.78;1.63;;;26.20;35.90;;;;;;5077742;28;20061;-60
2021/05/31 09:12:23;;;;;;;1.80;1.70;;;26.20;35.50;;;;;;5076526;28;20078;-61
2021/05/31 09:15:01;;;;;;;1.75;1.58;;;26.20;34.50;;;;;;5077430;28;20497;-60
2021/05/31 09:17:30;;;;;;;1.50;1.40;;;26.00;34.20;;;;;;5077825;28;20083;-60
2021/05/31 09:19:58;;;;;;;1.43;1.40;;;25.90;34.20;;;;;;5079979;28;20126;-61
2021/05/31 09:22:27;;;;;;;2.05;1.48;;;25.80;33.90;;;;;;5079588;28;20048;-61
2021/05/31 09:25:04;;;;;;;1.38;1.38;;;25.70;34.20;;;;;;5077093;28;20059;-63
2021/05/31 09:27:32;;;;;;;4.35;1.35;;;25.50;34.80;;;;;;5079192;28;20105;-62
2021/05/31 09:30:05;;;;;;;1.30;1.20;;;25.50;35.30;;;;;;5077592;28;20101;-66
2021/05/31 09:32:32;;;;;;;1.30;1.20;;;25.50;35.50;;;;;;5076912;28;20335;-66
2021/05/31 09:35:09;;;;;;;2.47;1.20;;;25.50;35.70;;;;;;5080465;28;20055;-61
2021/05/31 09:37:47;;;;;;;3.13;1.15;;;25.60;35.80;;;;;;5073099;28;20056;-61
2021/05/31 09:40:23;;;;;;;3.47;1.40;;;25.80;35.80;;;;;;5079029;28;20048;-61
2021/05/31 09:42:54;;;;;;;4.00;1.83;;;25.90;36.10;;;;;;5077705;28;20052;-64
2021/05/31 09:45:21;;;;;;;;;;;26.00;35.80;;;;;;5077882;28;20040;-60
2021/05/31 09:47:48;;;;;;;3.70;1.45;;;26.10;35.70;;;;;;5079607;28;20400;-64
2021/05/31 09:50:28;;;;;;;3.03;1.42;;;26.20;35.90;;;;;;5074957;28;20086;-63
2021/05/31 09:53:11;;;;;;;5.10;1.90;;;26.20;35.80;;;;;;5084630;28;20142;-62
2021/05/31 09:55:44;;;;;;;1.65;1.40;;;26.30;36.00;;;;;;5082550;28;20122;-62
2021/05/31 09:58:14;;;;;;;2.63;1.70;;;26.30;36.00;;;;;;5079529;28;20132;-62
2021/05/31 10:00:56;;;;;;;2.65;1.30;;;26.30;35.80;;;;;;5083060;28;20410;-62
2021/05/31 10:03:47;;;;;;;4.45;1.70;;;26.40;35.80;;;;;;5080944;28;20052;-63
2021/05/31 10:06:21;;;;;;;3.15;1.83;;;26.40;35.90;;;;;;5081983;28;20523;-63
2021/05/31 10:08:48;;;;;;;2.17;2.08;;;26.40;35.70;;;;;;5078589;28;20158;-61
2021/05/31 10:11:15;;;;;;;2.35;2.17;;;26.40;35.70;;;;;;5083574;28;20051;-63
2021/05/31 10:13:44;;;;;;;2.55;2.20;;;26.50;35.60;;;;;;5078354;28;20131;-62
2021/05/31 10:16:12;;;;;;;3.38;2.22;;;26.40;35.30;;;;;;5081737;28;20083;-63
2021/05/31 10:18:41;;;;;;;2.60;2.25;;;26.50;35.30;;;;;;5082777;28;20047;-62
2021/05/31 10:21:11;;;;;;;2.22;2.08;;;26.50;35.30;;;;;;5082289;28;20583;-63
2021/05/31 10:23:39;;;;;;;1.85;1.75;;;26.50;35.10;;;;;;5082039;28;20127;-64
2021/05/31 10:26:09;;;;;;;2.10;2.00;;;26.50;35.20;;;;;;5080526;28;20558;-62
2021/05/31 10:28:41;;;;;;;2.05;1.80;;;26.50;35.10;;;;;;5079695;28;20123;-62
2021/05/31 10:31:10;;;;;;;1.75;1.65;;;26.50;35.00;;;;;;5080149;28;20052;-62
2021/05/31 10:33:39;;;;;;;6.35;2.35;;;26.50;34.70;;;;;;5081613;28;20068;-62
2021/05/31 10:36:18;;;;;;;2.15;1.95;;;26.50;34.60;;;;;;5079797;28;20557;-62
2021/05/31 10:38:50;;;;;;;4.07;1.70;;;26.60;34.60;;;;;;5081553;28;20127;-62
2021/05/31 10:41:20;;;;;;;1.70;1.60;;;26.60;34.70;;;;;;5080310;28;20048;-62
2021/05/31 10:43:51;;;;;;;1.83;1.73;;;26.60;34.70;;;;;;5083513;28;20062;-62
2021/05/31 10:46:24;;;;;;;2.63;2.08;;;26.60;34.70;;;;;;5080199;28;20051;-62
2021/05/31 10:48:52;;;;;;;2.10;1.80;;;26.60;34.60;;;;;;5078766;28;20413;-62
2021/05/31 10:51:25;;;;;;;3.00;2.15;;;26.60;34.40;;;;;;5080854;28;20056;-62
2021/05/31 10:53:53;;;;;;;3.05;2.10;;;26.60;34.50;;;;;;5074913;28;20147;-62
2021/05/31 10:56:26;;;;;;;3.47;2.33;;;26.60;34.60;;;;;;5077727;28;20051;-62
2021/05/31 10:58:58;;;;;;;2.90;2.40;;;26.50;35.20;;;;;;5078191;28;20062;-62
2021/05/31 11:01:39;;;;;;;2.03;1.92;;;26.50;34.70;;;;;;5076905;28;20104;-63
2021/05/31 11:04:22;;;;;;;1.60;1.50;;;26.50;34.00;;;;;;5060836;28;20449;-63
2021/05/31 11:06:52;;;;;;;1.50;1.40;;;26.40;33.40;;;;;;5074180;28;20059;-63
2021/05/31 11:09:23;;;;;;;1.45;1.35;;;26.30;33.40;;;;;;5074147;28;20231;-68
2021/05/31 11:11:54;;;;;;;2.90;1.52;;;26.20;33.30;;;;;;5074306;28;20056;-62
2021/05/31 11:14:38;;;;;;;7.47;2.53;;;26.00;33.20;;;;;;5074700;28;20447;-67
2021/05/31 11:17:17;;;;;;;1.80;1.45;;;26.00;34.00;;;;;;5077745;28;20051;-63
2021/05/31 11:19:49;;;;;;;4.10;1.83;;;25.90;33.10;;;;;;5074765;28;20058;-61
2021/05/31 11:22:28;;;;;;;1.92;1.75;;;25.80;33.00;;;;;;5081528;28;20301;-63
2021/05/31 11:25:03;;;;;;;2.42;1.20;;;25.80;33.30;;;;;;5081180;28;20069;-63
2021/05/31 11:27:36;;;;;;;1.55;1.42;;;25.70;33.40;;;;;;5077765;28;20047;-62
2021/05/31 11:30:15;;;;;;;6.05;1.45;;;25.70;33.40;;;;;;5080072;28;20122;-62
2021/05/31 11:32:42;;;;;;;1.88;1.13;;;25.70;33.80;;;;;;5078031;28;20079;-62
2021/05/31 11:35:13;;;;;;;4.88;1.88;;;25.80;34.20;;;;;;5082009;28;20044;-64
2021/05/31 11:38:01;;;;;;;1.80;1.42;;;25.80;34.30;;;;;;5080828;28;20044;-61
2021/05/31 11:40:31;;;;;;;2.00;1.90;;;25.80;34.20;;;;;;5082752;28;20044;-62
2021/05/31 11:43:02;;;;;;;2.30;1.70;;;25.80;34.60;;;;;;5080169;28;20117;-62
2021/05/31 11:45:34;;;;;;;2.65;1.40;;;25.80;35.00;;;;;;5082643;28;20083;-62
2021/05/31 11:48:04;;;;;;;2.05;1.52;;;25.80;34.50;;;;;;5081520;28;20401;-63
2021/05/31 11:50:36;;;;;;;1.75;1.65;;;25.80;34.50;;;;;;5084193;28;20530;-63
2021/05/31 11:53:04;;;;;;;1.63;1.52;;;25.70;34.70;;;;;;5078144;28;20164;-62
2021/05/31 11:55:32;;;;;;;2.45;2.00;;;25.70;35.00;;;;;;5083549;28;20094;-62
2021/05/31 11:58:01;;;;;;;1.90;1.58;;;25.70;35.30;;;;;;5083544;28;20768;-63
2021/05/31 12:00:34;;;;;;;1.92;1.83;;;25.70;35.50;;;;;;5079690;28;20134;-62
2021/05/31 12:03:01;;;;;;;5.82;2.72;;;25.80;35.60;;;;;;5078799;28;20044;-62
2021/05/31 12:05:42;;;;;;;3.08;2.50;;;25.90;35.80;;;;;;5081882;28;20775;-61
2021/05/31 12:08:11;;;;;;;4.70;2.08;;;25.90;35.80;;;;;;5083999;28;20135;-62
2021/05/31 12:10:44;;;;;;;5.40;1.85;;;26.00;35.90;;;;;;5078026;28;20074;-61
2021/05/31 12:13:12;;;;;;;2.05;1.67;;;26.10;35.90;;;;;;5077108;28;20110;-61
2021/05/31 12:15:41;;;;;;;2.90;1.95;;;26.20;36.00;;;;;;5083349;28;20055;-61
2021/05/31 12:18:13;;;;;;;2.38;2.17;;;26.30;35.90;;;;;;5079575;28;20865;-62
2021/05/31 12:20:42;;;;;;;2.90;2.25;;;26.40;35.90;;;;;;5083919;28;20052;-62
2021/05/31 12:23:21;;;;;;;1.85;1.65;;;26.40;36.00;;;;;;5078918;28;20047;-65
2021/05/31 12:25:51;;;;;;;3.97;2.88;;;26.40;36.00;;;;;;5082705;28;20131;-65
2021/05/31 12:28:19;;;;;;;5.43;2.85;;;26.40;35.80;;;;;;5081092;28;20082;-66
2021/05/31 12:30:48;;;;;;;2.92;2.63;;;26.40;35.80;;;;;;5082844;28;20075;-62
2021/05/31 12:33:16;;;;;;;3.63;1.90;;;26.40;35.90;;;;;;5077996;28;20063;-61
2021/05/31 12:35:48;;;;;;;3.00;2.10;;;26.40;36.00;;;;;;5081921;28;20441;-60
2021/05/31 12:38:20;;;;;;;3.38;2.22;;;26.40;36.20;;;;;;5082131;28;20136;-61
2021/05/31 12:40:48;;;;;;;3.53;2.50;;;26.50;36.50;;;;;;5078713;28;20044;-62
2021/05/31 12:43:16;;;;;;;3.22;2.08;;;26.50;36.40;;;;;;5071863;28;20079;-60
2021/05/31 12:45:47;;;;;;;2.22;1.50;;;26.50;36.30;;;;;;5081904;28;20071;-62
2021/05/31 12:48:16;;;;;;;2.90;1.63;;;26.60;36.20;;;;;;5081885;28;20139;-60
2021/05/31 12:50:44;;;;;;;3.25;2.05;;;26.60;36.10;;;;;;5082530;28;20059;-59
2021/05/31 12:53:12;;;;;;;1.55;1.38;;;26.60;36.20;;;;;;5076349;28;20056;-59
2021/05/31 12:55:42;;;;;;;1.92;1.55;;;26.70;36.30;;;;;;5081251;28;20565;-64
2021/05/31 12:58:11;;;;;;;2.05;1.67;;;26.60;36.50;;;;;;5079859;28;20221;-61
2021/05/31 13:00:39;;;;;;;1.20;1.20;;;26.60;36.70;;;;;;5075098;28;20054;-62
2021/05/31 13:03:06;;;;;;;2.38;1.13;;;26.40;36.70;;;;;;5071719;28;20311;-62
2021/05/31 13:05:36;;;;;;;10.20;1.50;;;26.30;37.20;;;;;;5078541;28;20044;-62
2021/05/31 13:08:04;;;;;;;;;;;26.20;36.80;;;;;;5078600;28;20513;-62
2021/05/31 13:10:34;;;;;;;1.17;1.17;;;26.10;37.40;;;;;;5080702;28;20481;-62
2021/05/31 13:13:08;;;;;;;2.20;1.25;;;26.00;37.20;;;;;;5074902;28;20048;-61